Terminal Aerodrome Forecast
Issued by NWS

Home | Current Version | Previous Version | Text Only | Print | Product List | Glossary On
Versions: 1 2 3 4 5 6 7 8 9 10 11 12 13 14 15
000
FTUS44 KLZK 301700
TAFBPK
TAF
KBPK 301725Z 3018/3118 17006KT P6SM VCSH SCT040 BKN100
     FM310000 VRB04KT P6SM SCT100 SCT250
     FM310800 VRB02KT 3SM BR SCT005 SCT250
      TEMPO 3109/3113 1SM BR BKN001
     FM311500 18006KT P6SM SCT040 SCT100=

USA.gov is the U.S. government's official web portal to all federal, state and local government web resources and services.